Time;durP1;ratioP1;P1;durP2;ratioP2;P2;SDS_P1;SDS_P2;PMS_P1;PMS_P2;Temp;Humidity;BMP_temperature;BMP_pressure;BME280_temperature;BME280_humidity;BME280_pressure;Samples;Min_cycle;Max_cycle;Signal;HPM_P1;HPM_P2
2023/10/26 00:01:39;;;;;;;1999.90;999.90;;;;;;;;;;5087896;28;20200;-64
2023/10/26 00:04:07;;;;;;;1999.90;999.90;;;;;;;;;;5085987;28;20207;-64
2023/10/26 00:06:34;;;;;;;1999.90;999.90;;;;;;;;;;5088285;28;20197;-64
2023/10/26 00:09:01;;;;;;;1999.90;999.90;;;;;;;;;;5086208;28;20195;-64
2023/10/26 00:11:30;;;;;;;1999.90;999.90;;;;;;;;;;5087735;28;20196;-64
2023/10/26 00:13:58;;;;;;;1999.90;999.90;;;;;;;;;;5088657;28;20190;-64
2023/10/26 00:16:26;;;;;;;1999.90;999.90;;;;;;;;;;5090723;28;20660;-64
2023/10/26 00:18:53;;;;;;;1999.90;999.90;;;;;;;;;;5090778;28;20219;-63
2023/10/26 00:21:20;;;;;;;1999.90;999.90;;;;;;;;;;5090012;28;20201;-64
2023/10/26 00:23:48;;;;;;;1999.90;999.90;;;;;;;;;;5092173;28;20521;-63
2023/10/26 00:26:15;;;;;;;1999.90;999.90;;;;;;;;;;5090261;28;20199;-64
2023/10/26 00:28:42;;;;;;;1999.90;999.90;;;;;;;;;;5091735;28;20219;-64
2023/10/26 00:31:11;;;;;;;1999.90;999.90;;;;;;;;;;5089177;28;20206;-64
2023/10/26 00:33:38;;;;;;;1999.90;999.90;;;;;;;;;;5090649;28;20279;-64
2023/10/26 00:36:06;;;;;;;1999.90;999.90;;;;;;;;;;5091213;28;20205;-64
2023/10/26 00:38:33;;;;;;;1999.90;999.90;;;;;;;;;;5089611;28;20240;-64
2023/10/26 00:41:01;;;;;;;1999.90;999.90;;;;;;;;;;5091833;28;20671;-64
2023/10/26 00:43:28;;;;;;;1999.90;999.90;;;;;;;;;;5089866;28;20206;-64
2023/10/26 00:45:55;;;;;;;1999.90;999.90;;;;;;;;;;5091723;28;20332;-64
2023/10/26 00:48:24;;;;;;;1999.90;999.90;;;;;;;;;;5090199;28;20526;-64
2023/10/26 00:50:52;;;;;;;1999.90;999.90;;;;;;;;;;5088496;28;20668;-64
2023/10/26 00:53:20;;;;;;;1999.90;999.90;;;;;;;;;;5090434;28;20196;-64
2023/10/26 00:55:48;;;;;;;1999.90;999.90;;;;;;;;;;5086527;28;20204;-64
2023/10/26 00:58:16;;;;;;;1999.90;999.90;;;;;;;;;;5090139;28;20196;-63
2023/10/26 01:00:44;;;;;;;1999.90;999.90;;;;;;;;;;5088900;28;20683;-64
2023/10/26 01:03:11;;;;;;;1999.90;999.90;;;;;;;;;;5090407;28;20202;-64
2023/10/26 01:05:40;;;;;;;1999.90;999.90;;;;;;;;;;5089647;28;20680;-64
2023/10/26 01:08:07;;;;;;;1999.90;999.90;;;;;;;;;;5089329;28;20196;-64
2023/10/26 01:10:35;;;;;;;1999.90;999.90;;;;;;;;;;5090047;28;20182;-64
2023/10/26 01:13:02;;;;;;;1999.90;999.90;;;;;;;;;;5088987;28;20197;-64
2023/10/26 01:15:29;;;;;;;1999.90;999.90;;;;;;;;;;5087356;28;20200;-64
2023/10/26 01:17:57;;;;;;;1999.90;999.90;;;;;;;;;;5088804;28;20181;-64
2023/10/26 01:20:24;;;;;;;1999.90;999.90;;;;;;;;;;5090665;28;20266;-63
2023/10/26 01:22:53;;;;;;;1999.90;999.90;;;;;;;;;;5089795;28;20214;-64
2023/10/26 01:25:20;;;;;;;1999.90;999.90;;;;;;;;;;5089258;28;20194;-64
2023/10/26 01:27:47;;;;;;;1999.90;999.90;;;;;;;;;;5090715;28;20195;-64
2023/10/26 01:30:16;;;;;;;1999.90;999.90;;;;;;;;;;5087214;28;20205;-63
2023/10/26 01:32:44;;;;;;;1999.90;999.90;;;;;;;;;;5090817;28;20192;-63
2023/10/26 01:35:11;;;;;;;1999.90;999.90;;;;;;;;;;5088592;28;20200;-64
2023/10/26 01:37:40;;;;;;;1999.90;999.90;;;;;;;;;;5090590;28;20220;-64
2023/10/26 01:40:10;;;;;;;1999.90;999.90;;;;;;;;;;5088909;28;20217;-64
2023/10/26 01:42:37;;;;;;;1999.90;999.90;;;;;;;;;;5088464;28;20740;-63
2023/10/26 01:45:05;;;;;;;1999.90;999.90;;;;;;;;;;5089557;28;20200;-63
2023/10/26 01:47:32;;;;;;;1999.90;999.90;;;;;;;;;;5088621;28;20196;-64
2023/10/26 01:50:00;;;;;;;1999.90;999.90;;;;;;;;;;5090515;28;20204;-64
2023/10/26 01:52:27;;;;;;;1999.90;999.90;;;;;;;;;;5088403;28;20200;-63
2023/10/26 01:54:54;;;;;;;1999.90;999.90;;;;;;;;;;5090296;28;20199;-63
2023/10/26 01:57:23;;;;;;;1999.90;999.90;;;;;;;;;;5088459;28;20753;-63
2023/10/26 01:59:54;;;;;;;1999.90;999.90;;;;;;;;;;5089870;28;20222;-63
2023/10/26 02:02:24;;;;;;;1999.90;999.90;;;;;;;;;;5089950;28;20278;-64
2023/10/26 02:04:51;;;;;;;1999.90;999.90;;;;;;;;;;5088435;28;20196;-64
2023/10/26 02:07:17;;;;;;;1999.90;999.90;;;;;;;;;;5089728;28;20193;-64
2023/10/26 02:09:45;;;;;;;1999.90;999.90;;;;;;;;;;5087032;28;20235;-63
2023/10/26 02:12:12;;;;;;;1999.90;999.90;;;;;;;;;;5089463;28;20188;-63
2023/10/26 02:14:41;;;;;;;1999.90;999.90;;;;;;;;;;5088060;28;20187;-63
2023/10/26 02:17:08;;;;;;;1999.90;999.90;;;;;;;;;;5086737;28;20199;-63
2023/10/26 02:19:35;;;;;;;1999.90;999.90;;;;;;;;;;5088632;28;20579;-63
2023/10/26 02:22:02;;;;;;;1999.90;999.90;;;;;;;;;;5087897;28;20199;-63
2023/10/26 02:24:30;;;;;;;1999.90;999.90;;;;;;;;;;5089326;28;20196;-63
2023/10/26 02:26:57;;;;;;;1999.90;999.90;;;;;;;;;;5087793;28;20194;-63
2023/10/26 02:29:24;;;;;;;1999.90;999.90;;;;;;;;;;5089315;28;20203;-63
2023/10/26 02:31:53;;;;;;;1999.90;999.90;;;;;;;;;;5086693;28;20746;-63
2023/10/26 02:34:20;;;;;;;1999.90;999.90;;;;;;;;;;5088902;28;20201;-63
2023/10/26 02:36:47;;;;;;;1999.90;999.90;;;;;;;;;;5068306;28;20204;-63
2023/10/26 02:39:15;;;;;;;1999.90;999.90;;;;;;;;;;5073873;28;20246;-63
2023/10/26 02:41:42;;;;;;;1999.90;999.90;;;;;;;;;;5089083;28;20215;-64
2023/10/26 02:44:09;;;;;;;1999.90;999.90;;;;;;;;;;5087824;28;20192;-63
2023/10/26 02:46:37;;;;;;;1999.90;999.90;;;;;;;;;;5089238;28;20222;-64
2023/10/26 02:49:05;;;;;;;1999.90;999.90;;;;;;;;;;5087630;28;20199;-64
2023/10/26 02:51:33;;;;;;;1999.90;999.90;;;;;;;;;;5088929;28;20219;-63
2023/10/26 02:54:00;;;;;;;1999.90;999.90;;;;;;;;;;5088688;28;20188;-63
2023/10/26 02:56:27;;;;;;;1999.90;999.90;;;;;;;;;;5087928;28;20277;-63
2023/10/26 02:58:54;;;;;;;1999.90;999.90;;;;;;;;;;5089034;28;20193;-64
2023/10/26 03:01:22;;;;;;;1999.90;999.90;;;;;;;;;;5087097;28;20203;-64
2023/10/26 03:03:49;;;;;;;1999.90;999.90;;;;;;;;;;5089274;28;20275;-64
2023/10/26 03:06:18;;;;;;;1999.90;999.90;;;;;;;;;;5087671;28;20195;-63
2023/10/26 03:08:45;;;;;;;1999.90;999.90;;;;;;;;;;5088581;28;20559;-64
2023/10/26 03:11:13;;;;;;;1999.90;999.90;;;;;;;;;;5087798;28;20193;-63
2023/10/26 03:13:40;;;;;;;1999.90;999.90;;;;;;;;;;5087561;28;20216;-64
2023/10/26 03:16:08;;;;;;;1999.90;999.90;;;;;;;;;;5088911;28;20672;-63
2023/10/26 03:18:37;;;;;;;1999.90;999.90;;;;;;;;;;5086749;28;20196;-63
2023/10/26 03:21:04;;;;;;;1999.90;999.90;;;;;;;;;;5088741;28;20219;-63
2023/10/26 03:23:33;;;;;;;1999.90;999.90;;;;;;;;;;5086465;28;20252;-63
2023/10/26 03:26:01;;;;;;;1999.90;999.90;;;;;;;;;;5088581;28;20195;-64
2023/10/26 03:28:28;;;;;;;1999.90;999.90;;;;;;;;;;5085712;28;20203;-63
2023/10/26 03:30:55;;;;;;;1999.90;999.90;;;;;;;;;;5087892;28;20661;-63
2023/10/26 03:33:22;;;;;;;1999.90;999.90;;;;;;;;;;5088477;28;20189;-64
2023/10/26 03:35:50;;;;;;;1999.90;999.90;;;;;;;;;;5086506;28;20275;-63
2023/10/26 03:38:17;;;;;;;1999.90;999.90;;;;;;;;;;5088376;28;20224;-63
2023/10/26 03:40:46;;;;;;;1999.90;999.90;;;;;;;;;;5085581;28;20297;-63
2023/10/26 03:43:13;;;;;;;1999.90;999.90;;;;;;;;;;5088395;28;20195;-64
2023/10/26 03:45:41;;;;;;;1999.90;999.90;;;;;;;;;;5086612;28;20188;-63
2023/10/26 03:48:08;;;;;;;1999.90;999.90;;;;;;;;;;5085993;28;20575;-64
2023/10/26 03:50:35;;;;;;;1999.90;999.90;;;;;;;;;;5087240;28;20203;-64
2023/10/26 03:53:03;;;;;;;1999.90;999.90;;;;;;;;;;5086966;28;20196;-63
2023/10/26 03:55:30;;;;;;;1999.90;999.90;;;;;;;;;;5086279;28;20226;-64
2023/10/26 03:57:59;;;;;;;1999.90;999.90;;;;;;;;;;5086671;28;20199;-63
2023/10/26 04:00:26;;;;;;;1999.90;999.90;;;;;;;;;;5086805;28;20219;-63
2023/10/26 04:02:53;;;;;;;1999.90;999.90;;;;;;;;;;5086100;28;20803;-63
2023/10/26 04:05:21;;;;;;;1999.90;999.90;;;;;;;;;;5087976;28;20192;-63
2023/10/26 04:07:48;;;;;;;1999.90;999.90;;;;;;;;;;5087124;28;20206;-64
2023/10/26 04:10:15;;;;;;;1999.90;999.90;;;;;;;;;;5086795;28;20194;-63
2023/10/26 04:12:43;;;;;;;1999.90;999.90;;;;;;;;;;5087684;28;20200;-63
2023/10/26 04:15:11;;;;;;;1999.90;999.90;;;;;;;;;;5084839;28;20198;-64
2023/10/26 04:17:39;;;;;;;1999.90;999.90;;;;;;;;;;5087680;28;20274;-64
2023/10/26 04:20:08;;;;;;;1999.90;999.90;;;;;;;;;;5086275;28;20219;-63
2023/10/26 04:22:35;;;;;;;1999.90;999.90;;;;;;;;;;5087411;28;20274;-63
2023/10/26 04:25:03;;;;;;;1999.90;999.90;;;;;;;;;;5087133;28;20214;-64
2023/10/26 04:27:30;;;;;;;1999.90;999.90;;;;;;;;;;5085545;28;20202;-64
2023/10/26 04:29:57;;;;;;;1999.90;999.90;;;;;;;;;;5087849;28;20642;-64
2023/10/26 04:32:26;;;;;;;1999.90;999.90;;;;;;;;;;5086066;28;20220;-64
2023/10/26 04:34:54;;;;;;;1999.90;999.90;;;;;;;;;;5087252;28;20191;-64
2023/10/26 04:37:22;;;;;;;1999.90;999.90;;;;;;;;;;5086129;28;20205;-63
2023/10/26 04:39:49;;;;;;;1999.90;999.90;;;;;;;;;;5086934;28;20233;-63
2023/10/26 04:42:17;;;;;;;1999.90;999.90;;;;;;;;;;5086776;28;20214;-63
2023/10/26 04:44:45;;;;;;;1999.90;999.90;;;;;;;;;;5086544;28;20222;-64
2023/10/26 04:47:13;;;;;;;1999.90;999.90;;;;;;;;;;5087746;28;20598;-63
2023/10/26 04:49:41;;;;;;;1999.90;999.90;;;;;;;;;;5085723;28;20668;-63
2023/10/26 04:52:14;;;;;;;1999.90;999.90;;;;;;;;;;5085992;28;20672;-63
2023/10/26 04:54:41;;;;;;;1999.90;999.90;;;;;;;;;;5085641;28;20966;-64
2023/10/26 04:57:08;;;;;;;1999.90;999.90;;;;;;;;;;5088024;28;20197;-64
2023/10/26 04:59:37;;;;;;;1999.90;999.90;;;;;;;;;;5086991;28;20194;-63
2023/10/26 05:02:04;;;;;;;1999.90;999.90;;;;;;;;;;5090324;28;20225;-63
2023/10/26 05:04:32;;;;;;;1999.90;999.90;;;;;;;;;;5090040;28;20233;-63
2023/10/26 05:07:00;;;;;;;1999.90;999.90;;;;;;;;;;5089510;28;20208;-63
2023/10/26 05:09:27;;;;;;;1999.90;999.90;;;;;;;;;;5091337;28;20191;-62
2023/10/26 05:11:55;;;;;;;1999.90;999.90;;;;;;;;;;5089310;28;20216;-62
2023/10/26 05:14:22;;;;;;;1999.90;999.90;;;;;;;;;;5091214;28;20209;-62
2023/10/26 05:16:51;;;;;;;1999.90;999.90;;;;;;;;;;5089625;28;20198;-62
2023/10/26 05:19:18;;;;;;;1999.90;999.90;;;;;;;;;;5090378;28;20236;-62
2023/10/26 05:21:45;;;;;;;1999.90;999.90;;;;;;;;;;5090548;28;20218;-63
2023/10/26 05:24:14;;;;;;;1999.90;999.90;;;;;;;;;;5089311;28;20201;-63
2023/10/26 05:26:41;;;;;;;1999.90;999.90;;;;;;;;;;5091205;28;20214;-62
2023/10/26 05:29:08;;;;;;;1999.90;999.90;;;;;;;;;;5088832;28;20195;-63
2023/10/26 05:31:36;;;;;;;1999.90;999.90;;;;;;;;;;5090912;28;20213;-62
2023/10/26 05:34:03;;;;;;;1999.90;999.90;;;;;;;;;;5089213;28;20193;-62
2023/10/26 05:36:31;;;;;;;1999.90;999.90;;;;;;;;;;5089818;28;20196;-62
2023/10/26 05:38:58;;;;;;;1999.90;999.90;;;;;;;;;;5089758;28;20726;-64
2023/10/26 05:41:26;;;;;;;1999.90;999.90;;;;;;;;;;5089140;28;20217;-63
2023/10/26 05:43:54;;;;;;;1999.90;999.90;;;;;;;;;;5090152;28;20198;-63
2023/10/26 05:46:21;;;;;;;1999.90;999.90;;;;;;;;;;5088904;28;20198;-63
2023/10/26 05:48:48;;;;;;;1999.90;999.90;;;;;;;;;;5090260;28;20202;-63
2023/10/26 05:51:16;;;;;;;1999.90;999.90;;;;;;;;;;5088872;28;20201;-63
2023/10/26 05:53:43;;;;;;;1999.90;999.90;;;;;;;;;;5090311;28;20191;-63
2023/10/26 05:56:11;;;;;;;1999.90;999.90;;;;;;;;;;5089546;28;20216;-63
2023/10/26 05:58:39;;;;;;;1999.90;999.90;;;;;;;;;;5088149;28;20727;-63
2023/10/26 06:01:07;;;;;;;1999.90;999.90;;;;;;;;;;5089859;28;20225;-63
2023/10/26 06:03:34;;;;;;;1999.90;999.90;;;;;;;;;;5088691;28;20201;-63
2023/10/26 06:06:02;;;;;;;1999.90;999.90;;;;;;;;;;5089774;28;20208;-63
2023/10/26 06:08:31;;;;;;;1999.90;999.90;;;;;;;;;;5089435;28;20285;-64
2023/10/26 06:10:58;;;;;;;1999.90;999.90;;;;;;;;;;5089335;28;20683;-64
2023/10/26 06:13:26;;;;;;;1999.90;999.90;;;;;;;;;;5088750;28;20199;-63
2023/10/26 06:15:55;;;;;;;1999.90;999.90;;;;;;;;;;5088101;28;20205;-63
2023/10/26 06:18:22;;;;;;;1999.90;999.90;;;;;;;;;;5089674;28;20208;-63
2023/10/26 06:20:57;;;;;;;1999.90;999.90;;;;;;;;;;5087156;28;20565;-64
2023/10/26 06:23:26;;;;;;;1999.90;999.90;;;;;;;;;;5089769;28;20187;-63
2023/10/26 06:25:58;;;;;;;1999.90;999.90;;;;;;;;;;5087814;28;20407;-64
2023/10/26 06:28:25;;;;;;;1999.90;999.90;;;;;;;;;;5089257;28;20238;-63
2023/10/26 06:30:53;;;;;;;1999.90;999.90;;;;;;;;;;5088841;28;20553;-63
2023/10/26 06:33:22;;;;;;;1999.90;999.90;;;;;;;;;;5088242;28;20269;-63
2023/10/26 06:35:49;;;;;;;1999.90;999.90;;;;;;;;;;5089722;28;20665;-63
2023/10/26 06:38:16;;;;;;;1999.90;999.90;;;;;;;;;;5087603;28;20635;-63
2023/10/26 06:40:45;;;;;;;1999.90;999.90;;;;;;;;;;5089356;28;20218;-63
2023/10/26 06:43:12;;;;;;;1999.90;999.90;;;;;;;;;;5087059;28;20491;-63
2023/10/26 06:45:39;;;;;;;1999.90;999.90;;;;;;;;;;5089525;28;20198;-63
2023/10/26 06:48:07;;;;;;;1999.90;999.90;;;;;;;;;;5088256;28;20200;-63
2023/10/26 06:50:35;;;;;;;1999.90;999.90;;;;;;;;;;5086654;28;20557;-63
2023/10/26 06:53:03;;;;;;;1999.90;999.90;;;;;;;;;;5088691;28;20195;-63
2023/10/26 06:55:33;;;;;;;1999.90;999.90;;;;;;;;;;5087612;28;20660;-63
2023/10/26 06:58:00;;;;;;;1999.90;999.90;;;;;;;;;;5087367;28;20190;-63
2023/10/26 07:00:28;;;;;;;1999.90;999.90;;;;;;;;;;5087217;28;20216;-62
2023/10/26 07:02:55;;;;;;;1999.90;999.90;;;;;;;;;;5088816;28;20209;-63
2023/10/26 07:05:22;;;;;;;1999.90;999.90;;;;;;;;;;5088425;28;20209;-63
2023/10/26 07:07:51;;;;;;;1999.90;999.90;;;;;;;;;;5088223;28;20205;-63
2023/10/26 07:10:19;;;;;;;1999.90;999.90;;;;;;;;;;5088586;28;20665;-63
2023/10/26 07:12:47;;;;;;;1999.90;999.90;;;;;;;;;;5087068;28;20217;-63
2023/10/26 07:15:14;;;;;;;1999.90;999.90;;;;;;;;;;5087985;28;20359;-63
2023/10/26 07:17:41;;;;;;;1999.90;999.90;;;;;;;;;;5086631;28;20194;-63
2023/10/26 07:20:09;;;;;;;1999.90;999.90;;;;;;;;;;5088303;28;20661;-63
2023/10/26 07:22:36;;;;;;;1999.90;999.90;;;;;;;;;;5086865;28;20213;-63
2023/10/26 07:25:05;;;;;;;1999.90;999.90;;;;;;;;;;5087377;28;20194;-63
2023/10/26 07:27:33;;;;;;;1999.90;999.90;;;;;;;;;;5088746;28;20201;-63
2023/10/26 07:30:00;;;;;;;1999.90;999.90;;;;;;;;;;5086711;28;20190;-63
2023/10/26 07:32:27;;;;;;;1999.90;999.90;;;;;;;;;;5088227;28;20548;-63
2023/10/26 07:34:55;;;;;;;1999.90;999.90;;;;;;;;;;5086732;28;20553;-63
2023/10/26 07:37:22;;;;;;;1999.90;999.90;;;;;;;;;;5088072;28;20850;-62
2023/10/26 07:39:49;;;;;;;1999.90;999.90;;;;;;;;;;5087235;28;20230;-63
2023/10/26 07:42:18;;;;;;;1999.90;999.90;;;;;;;;;;5087406;28;20222;-63
2023/10/26 07:44:46;;;;;;;1999.90;999.90;;;;;;;;;;5088386;28;20277;-63
2023/10/26 07:47:13;;;;;;;1999.90;999.90;;;;;;;;;;5086244;28;20247;-63
2023/10/26 07:49:40;;;;;;;1999.90;999.90;;;;;;;;;;5088422;28;20191;-63
2023/10/26 07:52:08;;;;;;;1999.90;999.90;;;;;;;;;;5084670;28;20199;-63
2023/10/26 07:54:35;;;;;;;1999.90;999.90;;;;;;;;;;5086930;28;20832;-63
2023/10/26 07:57:02;;;;;;;1999.90;999.90;;;;;;;;;;5086917;28;20213;-62
2023/10/26 07:59:32;;;;;;;1999.90;999.90;;;;;;;;;;5087369;28;20191;-62
2023/10/26 08:01:59;;;;;;;1999.90;999.90;;;;;;;;;;5087972;28;20220;-63
2023/10/26 08:04:29;;;;;;;1999.90;999.90;;;;;;;;;;5086230;28;20219;-63
2023/10/26 08:06:56;;;;;;;1999.90;999.90;;;;;;;;;;5088119;28;20192;-64
2023/10/26 08:09:25;;;;;;;1999.90;999.90;;;;;;;;;;5086065;28;20664;-63
2023/10/26 08:11:53;;;;;;;1999.90;999.90;;;;;;;;;;5088211;28;20190;-63
2023/10/26 08:14:20;;;;;;;1999.90;999.90;;;;;;;;;;5086278;28;20192;-62
2023/10/26 08:16:49;;;;;;;1999.90;999.90;;;;;;;;;;5087117;28;20230;-63
2023/10/26 08:19:16;;;;;;;1999.90;999.90;;;;;;;;;;5087458;28;20208;-62
2023/10/26 08:21:43;;;;;;;1999.90;999.90;;;;;;;;;;5086468;28;20689;-62
2023/10/26 08:24:11;;;;;;;1999.90;999.90;;;;;;;;;;5087400;28;20187;-63
2023/10/26 08:26:38;;;;;;;1999.90;999.90;;;;;;;;;;5086332;28;20200;-63
2023/10/26 08:29:05;;;;;;;1999.90;999.90;;;;;;;;;;5087833;28;20675;-62
2023/10/26 08:31:35;;;;;;;1999.90;999.90;;;;;;;;;;5086515;28;20196;-63
2023/10/26 08:34:04;;;;;;;1999.90;999.90;;;;;;;;;;5087292;28;20196;-63
2023/10/26 08:36:31;;;;;;;1999.90;999.90;;;;;;;;;;5090210;28;20193;-63
2023/10/26 08:38:58;;;;;;;1999.90;999.90;;;;;;;;;;5090148;28;20582;-62
2023/10/26 08:41:26;;;;;;;1999.90;999.90;;;;;;;;;;5091307;28;20650;-62
2023/10/26 08:43:53;;;;;;;1999.90;999.90;;;;;;;;;;5090296;28;20197;-63
2023/10/26 08:46:20;;;;;;;1999.90;999.90;;;;;;;;;;5091316;28;20203;-62
2023/10/26 08:48:48;;;;;;;1999.90;999.90;;;;;;;;;;5090222;28;20203;-63
2023/10/26 08:51:17;;;;;;;1999.90;999.90;;;;;;;;;;5089816;28;20190;-63
2023/10/26 08:53:44;;;;;;;1999.90;999.90;;;;;;;;;;5090515;28;20192;-62
2023/10/26 08:56:11;;;;;;;1999.90;999.90;;;;;;;;;;5090235;28;20186;-62
2023/10/26 08:58:39;;;;;;;1999.90;999.90;;;;;;;;;;5091118;28;20200;-62
2023/10/26 09:01:07;;;;;;;1999.90;999.90;;;;;;;;;;5089427;28;20224;-62
2023/10/26 09:03:35;;;;;;;1999.90;999.90;;;;;;;;;;5091273;28;20192;-63
2023/10/26 09:06:02;;;;;;;1999.90;999.90;;;;;;;;;;5089318;28;20202;-62
2023/10/26 09:08:31;;;;;;;1999.90;999.90;;;;;;;;;;5090822;28;20637;-64
2023/10/26 09:10:58;;;;;;;1999.90;999.90;;;;;;;;;;5090688;28;20205;-65
2023/10/26 09:13:26;;;;;;;1999.90;999.90;;;;;;;;;;5089743;28;20648;-64
2023/10/26 09:15:55;;;;;;;1999.90;999.90;;;;;;;;;;5091177;28;20194;-63
2023/10/26 09:18:23;;;;;;;1999.90;999.90;;;;;;;;;;5088787;28;20194;-64
2023/10/26 09:21:04;;;;;;;1999.90;999.90;;;;;;;;;;5090652;28;20228;-64
2023/10/26 09:23:33;;;;;;;1999.90;999.90;;;;;;;;;;5089126;28;20241;-64
2023/10/26 09:26:02;;;;;;;1999.90;999.90;;;;;;;;;;5090567;28;20210;-64
2023/10/26 09:28:29;;;;;;;1999.90;999.90;;;;;;;;;;5090044;28;20190;-64
2023/10/26 09:31:00;;;;;;;1999.90;999.90;;;;;;;;;;5089252;28;20966;-64
2023/10/26 09:33:28;;;;;;;1999.90;999.90;;;;;;;;;;5090147;28;20218;-65
2023/10/26 09:35:55;;;;;;;1999.90;999.90;;;;;;;;;;5088979;28;20201;-65
2023/10/26 09:38:37;;;;;;;1999.90;999.90;;;;;;;;;;5090104;28;20308;-65
2023/10/26 09:41:07;;;;;;;1999.90;999.90;;;;;;;;;;5069290;28;20194;-66
2023/10/26 09:43:34;;;;;;;1999.90;999.90;;;;;;;;;;5068623;28;20206;-64
2023/10/26 09:46:02;;;;;;;1999.90;999.90;;;;;;;;;;5069699;28;20199;-64
2023/10/26 09:48:29;;;;;;;1999.90;999.90;;;;;;;;;;5067379;28;20199;-64
2023/10/26 09:51:00;;;;;;;1999.90;999.90;;;;;;;;;;5070024;28;20214;-64
2023/10/26 09:53:31;;;;;;;1999.90;999.90;;;;;;;;;;5087630;28;20603;-64
2023/10/26 09:56:00;;;;;;;1999.90;999.90;;;;;;;;;;5090106;28;20190;-65
2023/10/26 09:58:29;;;;;;;1999.90;999.90;;;;;;;;;;5088280;28;20198;-64
2023/10/26 10:00:56;;;;;;;1999.90;999.90;;;;;;;;;;5089402;28;20680;-65
2023/10/26 10:03:26;;;;;;;1999.90;999.90;;;;;;;;;;5089390;28;20189;-64
2023/10/26 10:05:53;;;;;;;1999.90;999.90;;;;;;;;;;5085909;28;20226;-65
2023/10/26 10:08:35;;;;;;;1999.90;999.90;;;;;;;;;;5089142;28;20194;-65
2023/10/26 10:11:17;;;;;;;1999.90;999.90;;;;;;;;;;5073062;28;20277;-65
2023/10/26 10:13:44;;;;;;;1999.90;999.90;;;;;;;;;;5095438;28;20205;-65
2023/10/26 10:16:27;;;;;;;1999.90;999.90;;;;;;;;;;5095659;28;20194;-65
2023/10/26 10:19:13;;;;;;;1999.90;999.90;;;;;;;;;;5087977;28;20617;-65
2023/10/26 10:21:40;;;;;;;1999.90;999.90;;;;;;;;;;5088930;28;20720;-66
2023/10/26 10:24:08;;;;;;;1999.90;999.90;;;;;;;;;;5088169;28;20545;-64
2023/10/26 10:26:50;;;;;;;1999.90;999.90;;;;;;;;;;5088369;28;20200;-66
2023/10/26 10:29:21;;;;;;;1999.90;999.90;;;;;;;;;;5068797;28;20199;-65
2023/10/26 10:31:49;;;;;;;1999.90;999.90;;;;;;;;;;5066958;28;20230;-66
2023/10/26 10:34:20;;;;;;;1999.90;999.90;;;;;;;;;;5068618;28;20183;-67
2023/10/26 10:37:06;;;;;;;1999.90;999.90;;;;;;;;;;5087249;28;20190;-65
2023/10/26 10:39:33;;;;;;;1999.90;999.90;;;;;;;;;;5088234;28;20226;-66
2023/10/26 10:42:00;;;;;;;1999.90;999.90;;;;;;;;;;5088519;28;20768;-66
2023/10/26 10:44:29;;;;;;;1999.90;999.90;;;;;;;;;;5087256;28;20218;-66
2023/10/26 10:46:57;;;;;;;1999.90;999.90;;;;;;;;;;5088824;28;20618;-66
2023/10/26 10:49:25;;;;;;;1999.90;999.90;;;;;;;;;;5087251;28;20190;-66
2023/10/26 10:51:53;;;;;;;1999.90;999.90;;;;;;;;;;5088548;28;20228;-66
2023/10/26 10:54:22;;;;;;;1999.90;999.90;;;;;;;;;;5087114;28;20201;-66
2023/10/26 10:56:50;;;;;;;1999.90;999.90;;;;;;;;;;5088074;28;20305;-66
2023/10/26 10:59:22;;;;;;;1999.90;999.90;;;;;;;;;;5087209;28;20229;-66
2023/10/26 11:01:51;;;;;;;1999.90;999.90;;;;;;;;;;5086055;28;20231;-65
2023/10/26 11:04:18;;;;;;;1999.90;999.90;;;;;;;;;;5087986;28;20201;-66
2023/10/26 11:06:47;;;;;;;1999.90;999.90;;;;;;;;;;5086087;28;20195;-66
2023/10/26 11:09:24;;;;;;;1999.90;999.90;;;;;;;;;;5087366;28;20651;-66
2023/10/26 11:11:52;;;;;;;1999.90;999.90;;;;;;;;;;5086465;28;20488;-66
2023/10/26 11:14:20;;;;;;;1999.90;999.90;;;;;;;;;;5087514;28;20274;-66
2023/10/26 11:16:48;;;;;;;1999.90;999.90;;;;;;;;;;5087115;28;20207;-66
2023/10/26 11:19:17;;;;;;;1999.90;999.90;;;;;;;;;;5086194;28;20202;-66
2023/10/26 11:21:44;;;;;;;1999.90;999.90;;;;;;;;;;5087218;28;20224;-66
2023/10/26 11:24:12;;;;;;;1999.90;999.90;;;;;;;;;;5083592;28;20203;-66
2023/10/26 11:26:40;;;;;;;1999.90;999.90;;;;;;;;;;5087568;28;20562;-66
2023/10/26 11:29:17;;;;;;;1999.90;999.90;;;;;;;;;;5085304;28;20203;-66
2023/10/26 11:31:45;;;;;;;1999.90;999.90;;;;;;;;;;5087075;28;20362;-67
2023/10/26 11:34:12;;;;;;;1999.90;999.90;;;;;;;;;;5087781;28;20191;-66
2023/10/26 11:36:46;;;;;;;1999.90;999.90;;;;;;;;;;5084130;28;20196;-66
2023/10/26 11:39:14;;;;;;;1999.90;999.90;;;;;;;;;;5087580;28;20222;-66
2023/10/26 11:41:41;;;;;;;1999.90;999.90;;;;;;;;;;5094915;28;20191;-67
2023/10/26 11:44:24;;;;;;;1999.90;999.90;;;;;;;;;;5087406;28;20199;-66
2023/10/26 11:46:57;;;;;;;1999.90;999.90;;;;;;;;;;5086733;28;20183;-66
2023/10/26 11:49:37;;;;;;;1999.90;999.90;;;;;;;;;;5086562;28;20179;-67
2023/10/26 11:52:07;;;;;;;1999.90;999.90;;;;;;;;;;5087671;28;20193;-67
2023/10/26 11:54:34;;;;;;;1999.90;999.90;;;;;;;;;;5085950;28;20656;-67
2023/10/26 11:57:01;;;;;;;1999.90;999.90;;;;;;;;;;5087177;28;20202;-66
2023/10/26 11:59:28;;;;;;;1999.90;999.90;;;;;;;;;;5086053;28;20202;-68
2023/10/26 12:01:56;;;;;;;1999.90;999.90;;;;;;;;;;5086803;28;20221;-67
2023/10/26 12:04:23;;;;;;;1999.90;999.90;;;;;;;;;;5087071;28;20193;-66
2023/10/26 12:06:50;;;;;;;1999.90;999.90;;;;;;;;;;5085661;28;20195;-67
2023/10/26 12:09:19;;;;;;;1999.90;999.90;;;;;;;;;;5086955;28;20209;-67
2023/10/26 12:11:46;;;;;;;1999.90;999.90;;;;;;;;;;5083647;28;20273;-67
2023/10/26 12:14:14;;;;;;;1999.90;999.90;;;;;;;;;;5087293;28;20221;-68
2023/10/26 12:16:41;;;;;;;1999.90;999.90;;;;;;;;;;5084431;28;20289;-69
2023/10/26 12:19:10;;;;;;;1999.90;999.90;;;;;;;;;;5086789;28;20206;-68
2023/10/26 12:21:37;;;;;;;1999.90;999.90;;;;;;;;;;5069694;28;20194;-68
2023/10/26 12:24:04;;;;;;;1999.90;999.90;;;;;;;;;;5065843;28;20205;-67
2023/10/26 12:26:33;;;;;;;1999.90;999.90;;;;;;;;;;5067480;28;20187;-67
2023/10/26 12:29:00;;;;;;;1999.90;999.90;;;;;;;;;;5064956;28;20191;-67
2023/10/26 12:31:28;;;;;;;1999.90;999.90;;;;;;;;;;5067044;28;20278;-67
2023/10/26 12:33:55;;;;;;;1999.90;999.90;;;;;;;;;;5065301;28;20657;-68
2023/10/26 12:36:22;;;;;;;1999.90;999.90;;;;;;;;;;5083492;28;20277;-67
2023/10/26 12:38:50;;;;;;;1999.90;999.90;;;;;;;;;;5086256;28;20222;-69
2023/10/26 12:41:17;;;;;;;1999.90;999.90;;;;;;;;;;5086312;28;20650;-68
2023/10/26 12:43:48;;;;;;;1999.90;999.90;;;;;;;;;;5087019;28;20214;-68
2023/10/26 12:46:15;;;;;;;1999.90;999.90;;;;;;;;;;5084179;28;20182;-68
2023/10/26 12:48:42;;;;;;;1999.90;999.90;;;;;;;;;;5087531;28;20217;-69
2023/10/26 12:51:10;;;;;;;1999.90;999.90;;;;;;;;;;5084922;28;20187;-68
2023/10/26 12:53:37;;;;;;;1999.90;999.90;;;;;;;;;;5086876;28;20213;-67
2023/10/26 12:56:05;;;;;;;1999.90;999.90;;;;;;;;;;5085776;28;20198;-68
2023/10/26 12:58:33;;;;;;;1999.90;999.90;;;;;;;;;;5086279;28;20213;-69
2023/10/26 13:01:01;;;;;;;1999.90;999.90;;;;;;;;;;5086655;28;20191;-68
2023/10/26 13:03:29;;;;;;;1999.90;999.90;;;;;;;;;;5085397;28;20222;-67
2023/10/26 13:05:56;;;;;;;1999.90;999.90;;;;;;;;;;5086434;28;20198;-68
2023/10/26 13:08:23;;;;;;;1999.90;999.90;;;;;;;;;;5085174;28;20263;-67
2023/10/26 13:10:51;;;;;;;1999.90;999.90;;;;;;;;;;5086746;28;20194;-68
2023/10/26 13:13:18;;;;;;;1999.90;999.90;;;;;;;;;;5085697;28;20197;-67
2023/10/26 13:15:46;;;;;;;1999.90;999.90;;;;;;;;;;5086097;28;20197;-68
2023/10/26 13:18:14;;;;;;;1999.90;999.90;;;;;;;;;;5085825;28;20195;-67
2023/10/26 13:20:41;;;;;;;1999.90;999.90;;;;;;;;;;5085283;28;20521;-68
2023/10/26 13:23:09;;;;;;;1999.90;999.90;;;;;;;;;;5089434;28;20222;-67
2023/10/26 13:25:36;;;;;;;1999.90;999.90;;;;;;;;;;5088767;28;20688;-67
2023/10/26 13:28:03;;;;;;;1999.90;999.90;;;;;;;;;;5089641;28;20182;-67
2023/10/26 13:30:31;;;;;;;1999.90;999.90;;;;;;;;;;5088917;28;20198;-67
2023/10/26 13:32:58;;;;;;;1999.90;999.90;;;;;;;;;;5089333;28;20281;-67
2023/10/26 13:35:29;;;;;;;1999.90;999.90;;;;;;;;;;5089290;28;20201;-67
2023/10/26 13:37:56;;;;;;;1999.90;999.90;;;;;;;;;;5088524;28;20237;-67
2023/10/26 13:40:24;;;;;;;1999.90;999.90;;;;;;;;;;5089991;28;20645;-67
2023/10/26 13:42:52;;;;;;;1999.90;999.90;;;;;;;;;;5088550;28;20218;-67
2023/10/26 13:45:19;;;;;;;1999.90;999.90;;;;;;;;;;5089957;28;20263;-71
2023/10/26 13:47:47;;;;;;;1999.90;999.90;;;;;;;;;;5088782;28;20191;-72